Terminal Aerodrome Forecast
Issued by NWS Grand Forks, ND

Home | Current Version | Previous Version | Text Only | Print | Product List | Glossary Off
Versions: 1 2 3 4 5 6 7 8 9 10 11 12 13 14 15 16 17 18 19 20 21 22 23 24 25 26 27

000
FTUS43 KFGF 130822 AAA
TAFFAR
TAF AMD
KFAR 130822Z 1308/1406 30013KT 5SM -RA OVC070
     FM131000 32020G30KT P6SM OVC090
     FM131400 34026G40KT P6SM BKN015
     FM132200 35021G31KT P6SM BKN020
     FM140000 35012KT P6SM BKN025=

USA.gov is the U.S. government's official web portal to all federal, state and local government web resources and services.